Coleman, FL (33521)

2:02 PM EDT en Agosto 21, 2014 (GMT -0400)
Rands Compound | Change Station
CLOSE
Current Station
Estación meteorológica personal
Location: Sumterville, FL
Altura: 111 ft
Estaciones meteorológicas cercanas

Alt 111 ft 28.74 °N, 82.06 °W | Updated 1 minute ago

Clear
Despejado
102.6 ° F
Sensación térmica 96 ° F
N
1.3
Viento Variable Viento desde SE
Gusts 2.0 mph

Hoy
Alta -- | Baja -- ° F
--% Posibilidad de precipitaciones
Ayer
Alta -- | Baja -- ° F
Precip. -- pul
7:00 AM 8:01 PM
Creciente menguante, 13% visible
Presión 30.10 pul
Visibilidad 7.0 Millas
Nubes Despejado
Índice de calor 96 ° F
Punto de rocío 14 ° F
Humedad 4%
Precipitaciones 0.00 pul
Espesor de la nieve No disponible.
UV 0.0 de una escala de 12
Polen 7.50 de una escala de 12
Calidad del aire No disponible.
Flu Activity No disponible.
METAR KINF 211755Z AUTO 07004KT 7SM CLR 34/16 A3010 RMK AO2

More Conditions Fewer Conditions

Presión 30.10 pul
Visibilidad 7.0 Millas
Nubes Despejado
Índice de calor 96 ° F
Punto de rocío 14 ° F
Humedad 4%
Precipitaciones 0.00 pul
Espesor de la nieve No disponible.
UV 0.0 de una escala de 12
Polen 7.50 de una escala de 12
Calidad del aire No disponible.
Flu Activity No disponible.
METAR KINF 211755Z AUTO 07004KT 7SM CLR 34/16 A3010 RMK AO2

More Conditions Fewer Conditions

10-Day Weather Forecast

Almanac

Astronomía

Aug. 21, 2014 Salida Puesta
Hora real 7:00 AM EDT 8:01 PM EDT
Crepúsculo civil 6:36 AM EDT 8:26 PM EDT
Crepúsculo náutico 6:07 AM EDT 8:55 PM EDT
Crepúsculo astronómico 5:37 AM EDT 9:24 PM EDT
Luna 3:37 AM EDT 5:22 PM EDT
Horas de luz 13h 50m
Horas de luz
13h 01m
Tomorrow will be 1m 34s shorter.
Creciente menguante, 13% of the Moon is Illuminated
Hoy
Creciente menguante
Ago 25
Nueva
Sep 2
Cuarto creciente
Sep 8
Luna llena
Sep 15
Cuarto menguante

Extremos de hoy

Máximos del estado Bajos del estado

Community

WunderPhotos

Upload Photos

1,745,987 ¡fotos cargadas!

WunderBlogs® & News

Nearby

Grosos de nieve

Estación Profundido Altura
No tenemos constancia de nieve nueva.

Actividad de terremotos

Ciudad Distance Mag. Tiempo y dato
No hay informes recientes de la actividad sísmica.
Magnitud mínima muestra es 2,5.

Temperaturas de aguas costeras

Lugar Temperatura
Sin partes meteorológicos de las estaciones

Estaciones meteorológicas cercanas